• Join FlightAware (Why Join?)
  • Login
  • US Flag 
07:39AM EDT


 

Airport Tracker/Info


-or-


 

Live Flight TrackerFlight Track Log ✈ DAL3759 ✈ 2013年 04月 30日 ✈ KATL - KTYS

Flight Track Log - Related Links

Times and Time Zones

All times are in EDT time to prevent confusion due to time zone crossing. See the DAL3759 flight status page for this flight to view local times or setup timezone preferences in your user account.

Time Position Orientation Groundspeed Altitude Reporting Facility
EDT Latitude Longitude Course Direction KTS MPH feet Rate Location/Type
10:09AM 33.6500 -84.3833 320° Northwest 168 193 2,000  Level Atlanta TRACON
10:10AM 33.6500 -84.3167 90° East 237 273 3,300 2,040 Climbing Atlanta TRACON
10:11AM 33.6667 -84.2333 76° East 276 318 6,100 2,820 Climbing Atlanta TRACON
10:12AM 33.7072 -84.1667 North  Level FlightAware Approximate
10:12AM 33.7167 -84.1833 40° Northeast 286 329 9,000  Level Atlanta TRACON
10:13AM 33.7864 -84.1667 North  Level FlightAware Approximate
10:14AM 33.8583 -84.1916 320° Northwest  Level FlightAware Approximate
10:14AM 33.8922 -84.2289 348° North 291 335 10,000  Level Atlanta Center
10:15AM 33.9714 -84.2867 329° Northwest 316 364 11,400 1,740 Climbing Atlanta Center
10:16AM 34.0631 -84.3247 341° North 336 387 13,500 1,740 Climbing Atlanta Center
10:17AM 34.1569 -84.3625 342° North 349 402 14,900 720 Climbing Atlanta Center
10:18AM 34.2528 -84.4033 341° North 356 410 15,000  Climbing Atlanta Center
10:19AM 34.3531 -84.4186 353° North 356 410 15,000  Level Atlanta Center
10:20AM 34.4575 -84.4067 North 366 421 15,000  Level Atlanta Center
10:21AM 34.5639 -84.3869 North 371 427 15,000 -60 Level Atlanta Center
10:22AM 34.6789 -84.3647 North 377 434 14,900 -60 Descending Atlanta Center
10:23AM 34.7872 -84.3472 North 383 441 14,900  Level Atlanta Center
10:24AM 34.8917 -84.3250 10° North 383 441 14,900  Level Atlanta Center
10:25AM 34.9856 -84.3100 North 389 448 14,900 -540 Level Atlanta Center
10:26AM 35.0922 -84.2875 10° North 384 442 13,900 -1,080 Descending Atlanta Center
10:27AM 35.1903 -84.2700 North 376 433 12,800 -1,080 Descending Atlanta Center
10:28AM 35.2861 -84.2525 North 355 409 11,800 -900 Descending Atlanta Center
10:29AM 35.3739 -84.2350 North 337 388 11,000 -660 Descending Atlanta Center
10:30AM 35.4572 -84.2197 North 313 360 10,500 -1,380 Descending Atlanta Center
10:31AM 35.5367 -84.2047 North 298 343 8,300 -2,400 Descending Atlanta Center
10:32AM 35.6119 -84.1767 17° North 287 330 5,700 -2,160 Descending Atlanta Center
10:33AM 35.6786 -84.1358 26° Northeast 277 319 4,000 -1,260 Descending Atlanta Center
10:34AM 35.7286 -84.0925 35° Northeast 243 280 3,200 -1,020 Descending Atlanta Center
10:35AM 35.7619 -84.0542 43° Northeast 200 230 2,000 -1,020 Descending Atlanta Center
10:36AM 35.7914 -84.0183 45° Northeast 159 183 1,200 -840 Descending Atlanta Center
10:38AM 35.8000 -83.9833 22° Northeast  Level FlightAware Approximate